createdAt,value
2019-03-13T00:00:52.932Z,42.44
2019-03-13T00:02:56.731Z,46.05
2019-03-13T00:05:00.591Z,49.41
2019-03-13T00:07:04.386Z,51.88
2019-03-13T00:09:11.449Z,51.71
2019-03-13T00:11:15.217Z,51.47
2019-03-13T00:13:19.062Z,51.40
2019-03-13T00:15:22.849Z,52.21
2019-03-13T00:17:26.545Z,52.19
2019-03-13T00:19:30.343Z,51.76
2019-03-13T00:21:34.061Z,51.70
2019-03-13T00:23:37.819Z,52.16
2019-03-13T00:25:41.630Z,51.54
2019-03-13T00:27:45.358Z,51.05
2019-03-13T00:29:49.140Z,50.19
2019-03-13T00:31:52.868Z,49.65
2019-03-13T00:33:56.596Z,48.53
2019-03-13T00:36:00.376Z,47.94
2019-03-13T00:38:04.116Z,47.40
2019-03-13T00:40:08.008Z,46.70
2019-03-13T00:42:11.817Z,46.88
2019-03-13T00:44:15.567Z,47.42
2019-03-13T00:46:19.502Z,47.89
2019-03-13T00:48:23.225Z,47.80
2019-03-13T00:50:28.895Z,47.87
2019-03-13T00:52:32.630Z,48.05
2019-03-13T00:54:36.446Z,48.33
2019-03-13T00:56:40.222Z,48.63
2019-03-13T00:58:43.966Z,49.04
2019-03-13T01:01:05.105Z,49.37
2019-03-13T01:03:14.491Z,49.84
2019-03-13T01:05:21.761Z,50.23
2019-03-13T01:07:25.465Z,50.50
2019-03-13T01:09:29.420Z,50.88
2019-03-13T01:11:33.142Z,50.81
2019-03-13T01:13:36.891Z,50.78
2019-03-13T01:15:40.606Z,51.14
2019-03-13T01:17:44.311Z,51.20
2019-03-13T01:19:48.044Z,51.06
2019-03-13T01:21:51.874Z,51.25
2019-03-13T01:23:55.689Z,50.91
2019-03-13T01:25:59.548Z,50.60
2019-03-13T01:28:03.267Z,50.22
2019-03-13T01:30:08.014Z,49.70
2019-03-13T01:32:35.228Z,48.76
2019-03-13T01:34:55.727Z,48.06
2019-03-13T01:36:59.747Z,48.08
2019-03-13T01:39:04.353Z,48.21
2019-03-13T01:41:08.738Z,48.85
2019-03-13T01:43:12.496Z,48.96
2019-03-13T01:45:16.801Z,49.33
2019-03-13T01:47:20.538Z,50.01
2019-03-13T01:49:24.269Z,50.23
2019-03-13T01:51:28.312Z,52.06
2019-03-13T01:53:32.060Z,53.74
2019-03-13T01:55:35.777Z,56.44
2019-03-13T01:57:39.696Z,60.01
2019-03-13T01:59:43.421Z,61.88
2019-03-13T02:01:47.136Z,62.67
2019-03-13T02:03:50.880Z,64.38
2019-03-13T02:05:54.575Z,65.38
2019-03-13T02:07:58.391Z,66.12
2019-03-13T02:10:02.157Z,66.98
2019-03-13T02:12:05.889Z,67.26
2019-03-13T02:14:09.714Z,67.94
2019-03-13T02:16:13.435Z,68.38
2019-03-13T02:18:17.187Z,68.99
2019-03-13T02:20:20.973Z,67.51
2019-03-13T02:22:24.702Z,66.54
2019-03-13T02:24:28.553Z,66.21
2019-03-13T02:26:32.267Z,66.87
2019-03-13T02:28:36.225Z,67.49
2019-03-13T02:30:40.021Z,67.74
2019-03-13T02:32:43.897Z,68.24
2019-03-13T02:34:47.766Z,68.44
2019-03-13T02:36:51.485Z,68.55
2019-03-13T02:38:55.200Z,68.36
2019-03-13T02:40:58.941Z,67.88
2019-03-13T02:43:02.671Z,67.59
2019-03-13T02:45:07.670Z,67.48
2019-03-13T02:47:11.309Z,67.01
2019-03-13T02:49:15.065Z,67.11
2019-03-13T02:51:18.819Z,66.92
2019-03-13T02:53:22.557Z,66.92
2019-03-13T02:55:26.283Z,66.95
2019-03-13T02:57:30.076Z,67.13
2019-03-13T02:59:33.843Z,67.13
2019-03-13T03:01:42.507Z,67.16
2019-03-13T03:03:49.924Z,67.26
2019-03-13T03:05:53.636Z,67.25
2019-03-13T03:07:57.366Z,67.24
2019-03-13T03:10:01.093Z,67.46
2019-03-13T03:12:04.871Z,67.53
2019-03-13T03:14:08.780Z,67.12
2019-03-13T03:16:12.643Z,66.91
2019-03-13T03:18:16.456Z,67.40
2019-03-13T03:20:20.322Z,67.19
2019-03-13T03:22:24.052Z,67.06
2019-03-13T03:24:27.805Z,67.05
2019-03-13T03:26:31.568Z,67.08
2019-03-13T03:28:35.318Z,67.01
2019-03-13T03:30:39.100Z,67.05
2019-03-13T03:32:42.871Z,66.81
2019-03-13T03:34:46.595Z,66.48
2019-03-13T03:36:50.302Z,66.46
2019-03-13T03:38:54.049Z,66.52
2019-03-13T03:40:57.765Z,66.51
2019-03-13T03:43:01.496Z,67.05
2019-03-13T03:45:06.015Z,66.94
2019-03-13T03:47:09.719Z,67.06
2019-03-13T03:49:13.467Z,67.13
2019-03-13T03:51:17.251Z,67.53
2019-03-13T03:53:20.972Z,67.30
2019-03-13T03:55:24.775Z,67.32
2019-03-13T03:57:28.476Z,67.76
2019-03-13T03:59:32.321Z,67.43
2019-03-13T04:01:36.039Z,67.26
2019-03-13T04:03:39.767Z,67.18
2019-03-13T04:05:43.567Z,66.59
2019-03-13T04:07:47.340Z,66.26
2019-03-13T04:09:51.187Z,65.83
2019-03-13T04:11:54.947Z,65.65
2019-03-13T04:13:58.680Z,65.49
2019-03-13T04:16:02.390Z,65.50
2019-03-13T04:18:06.094Z,65.61
2019-03-13T04:20:10.560Z,65.48
2019-03-13T04:22:14.238Z,65.37
2019-03-13T04:24:17.963Z,65.33
2019-03-13T04:26:21.678Z,65.31
2019-03-13T04:28:25.383Z,65.46
2019-03-13T04:30:29.198Z,65.58
2019-03-13T04:32:32.892Z,65.71
2019-03-13T04:34:36.668Z,66.11
2019-03-13T04:36:40.405Z,66.13
2019-03-13T04:38:44.193Z,66.26
2019-03-13T04:40:47.945Z,66.69
2019-03-13T04:42:51.730Z,66.79
2019-03-13T04:44:55.547Z,67.25
2019-03-13T04:46:59.262Z,67.07
2019-03-13T04:49:02.998Z,67.42
2019-03-13T04:51:06.717Z,67.62
2019-03-13T04:53:10.485Z,67.60
2019-03-13T04:55:14.672Z,67.84
2019-03-13T04:57:18.431Z,67.72
2019-03-13T04:59:22.136Z,67.60
2019-03-13T05:01:26.325Z,67.43
2019-03-13T05:03:30.112Z,67.16
2019-03-13T05:05:50.138Z,67.18
2019-03-13T05:07:53.880Z,66.99
2019-03-13T05:09:57.611Z,66.79
2019-03-13T05:12:01.328Z,66.79
2019-03-13T05:14:05.238Z,66.45
2019-03-13T05:16:08.960Z,66.37
2019-03-13T05:18:12.655Z,66.28
2019-03-13T05:20:16.403Z,67.09
2019-03-13T05:22:20.110Z,67.43
2019-03-13T05:24:23.850Z,68.67
2019-03-13T05:26:27.628Z,70.48
2019-03-13T05:28:31.338Z,71.58
2019-03-13T05:30:35.082Z,72.22
2019-03-13T05:32:38.811Z,72.82
2019-03-13T05:34:42.623Z,73.08
2019-03-13T05:36:46.322Z,72.99
2019-03-13T05:38:50.044Z,73.83
2019-03-13T05:40:53.850Z,73.78
2019-03-13T05:42:57.629Z,73.90
2019-03-13T05:45:01.365Z,74.20
2019-03-13T05:47:05.120Z,74.52
2019-03-13T05:49:08.831Z,74.16
2019-03-13T05:51:12.551Z,74.11
2019-03-13T05:53:16.253Z,74.35
2019-03-13T05:55:19.989Z,74.31
2019-03-13T05:57:23.710Z,74.40
2019-03-13T05:59:27.500Z,74.55
2019-03-13T06:01:31.234Z,74.19
2019-03-13T06:03:34.935Z,73.90
2019-03-13T06:05:38.671Z,73.96
2019-03-13T06:07:42.445Z,73.63
2019-03-13T06:09:46.149Z,73.56
2019-03-13T06:11:49.881Z,73.57
2019-03-13T06:13:53.644Z,73.51
2019-03-13T06:15:57.383Z,73.35
2019-03-13T06:18:01.080Z,73.65
2019-03-13T06:20:05.485Z,73.57
2019-03-13T06:22:09.184Z,73.47
2019-03-13T06:24:12.894Z,73.57
2019-03-13T06:26:16.737Z,73.35
2019-03-13T06:28:20.470Z,73.32
2019-03-13T06:30:24.202Z,73.11
2019-03-13T06:32:27.953Z,73.03
2019-03-13T06:34:31.668Z,73.03
2019-03-13T06:36:35.504Z,73.27
2019-03-13T06:38:39.232Z,73.54
2019-03-13T06:40:43.051Z,73.55
2019-03-13T06:42:46.868Z,73.48
2019-03-13T06:44:50.673Z,72.65
2019-03-13T06:46:54.516Z,71.30
2019-03-13T06:48:58.220Z,69.85
2019-03-13T06:51:02.231Z,68.13
2019-03-13T06:53:05.931Z,66.87
2019-03-13T06:55:09.910Z,66.35
2019-03-13T06:57:13.740Z,65.41
2019-03-13T06:59:22.281Z,65.48
2019-03-13T07:01:41.855Z,65.59
2019-03-13T07:04:21.159Z,65.08
2019-03-13T07:06:42.795Z,64.92
2019-03-13T07:09:20.724Z,64.28
2019-03-13T07:11:34.878Z,63.66
2019-03-13T07:13:44.441Z,63.86
2019-03-13T07:16:02.719Z,64.06
2019-03-13T07:18:28.195Z,64.97
2019-03-13T07:20:49.608Z,65.75
2019-03-13T07:23:10.981Z,65.42
2019-03-13T07:25:33.584Z,63.44
2019-03-13T07:27:47.407Z,63.25
2019-03-13T07:29:59.840Z,63.52
2019-03-13T07:32:25.551Z,63.78
2019-03-13T07:34:45.521Z,63.97
2019-03-13T07:37:01.898Z,63.67
2019-03-13T07:39:20.128Z,63.69
2019-03-13T07:41:54.938Z,63.35
2019-03-13T07:44:23.957Z,63.29
2019-03-13T07:46:49.834Z,62.57
2019-03-13T07:49:12.558Z,59.74
2019-03-13T07:51:34.057Z,53.58
2019-03-13T07:53:48.239Z,51.96
2019-03-13T07:56:04.148Z,51.73
2019-03-13T07:58:16.755Z,52.45
2019-03-13T08:00:27.301Z,53.13
2019-03-13T08:02:56.040Z,53.67
2019-03-13T08:05:06.105Z,54.13
2019-03-13T08:07:32.056Z,53.07
2019-03-13T08:10:06.597Z,52.51
2019-03-13T08:12:41.362Z,50.46
2019-03-13T08:15:10.273Z,43.74
2019-03-13T08:17:36.038Z,40.04
2019-03-13T08:19:58.778Z,37.66
2019-03-13T08:22:15.891Z,34.67
2019-03-13T08:24:41.648Z,32.72
2019-03-13T08:26:57.149Z,31.91
2019-03-13T08:29:12.725Z,32.22
2019-03-13T08:31:33.946Z,32.24
2019-03-13T08:34:07.057Z,34.71
2019-03-13T08:36:23.153Z,36.70
2019-03-13T08:38:35.267Z,38.89
2019-03-13T08:40:48.614Z,39.75
2019-03-13T08:43:11.275Z,39.34
2019-03-13T08:45:34.514Z,38.88
2019-03-13T08:48:15.478Z,39.14
2019-03-13T08:50:35.795Z,41.02
2019-03-13T08:53:10.527Z,42.74
2019-03-13T08:55:32.092Z,41.79
2019-03-13T08:57:42.370Z,43.00
2019-03-13T09:00:17.276Z,43.83
2019-03-13T09:02:29.926Z,42.88
2019-03-13T09:04:52.664Z,43.55
2019-03-13T09:07:21.512Z,43.64
2019-03-13T09:09:47.146Z,43.30
2019-03-13T09:11:58.849Z,42.89
2019-03-13T09:14:13.756Z,40.88
2019-03-13T09:16:33.047Z,39.18
2019-03-13T09:18:48.974Z,39.17
2019-03-13T09:21:11.804Z,39.72
2019-03-13T09:23:26.856Z,39.78
2019-03-13T09:25:45.544Z,40.43
2019-03-13T09:27:56.914Z,39.56
2019-03-13T09:30:25.770Z,39.56
2019-03-13T09:33:00.523Z,40.24
2019-03-13T09:35:22.409Z,41.08
2019-03-13T09:37:55.391Z,38.38
2019-03-13T09:40:20.585Z,38.60
2019-03-13T09:42:43.376Z,39.59
2019-03-13T09:45:11.965Z,42.25
2019-03-13T09:47:21.850Z,42.19
2019-03-13T09:49:51.339Z,43.04
2019-03-13T09:52:01.170Z,43.59
2019-03-13T09:54:33.134Z,43.61
2019-03-13T09:56:43.407Z,44.06
2019-03-13T09:58:54.898Z,43.51
2019-03-13T10:01:15.135Z,44.41
2019-03-13T10:03:29.110Z,44.59
2019-03-13T10:05:50.488Z,45.86
2019-03-13T10:07:59.996Z,45.68
2019-03-13T10:10:21.620Z,45.57
2019-03-13T10:12:50.532Z,45.50
2019-03-13T10:15:16.048Z,45.68
2019-03-13T10:17:39.288Z,44.38
2019-03-13T10:20:05.705Z,43.16
2019-03-13T10:22:18.039Z,43.28
2019-03-13T10:24:35.188Z,42.08
2019-03-13T10:26:57.930Z,41.10
2019-03-13T10:29:13.400Z,41.05
2019-03-13T10:31:32.538Z,41.24
2019-03-13T10:33:58.342Z,41.55
2019-03-13T10:36:11.838Z,41.68
2019-03-13T10:38:33.057Z,42.16
2019-03-13T10:40:51.313Z,42.01
2019-03-13T10:43:17.287Z,42.12
2019-03-13T10:45:48.844Z,41.70
2019-03-13T10:48:04.413Z,41.32
2019-03-13T10:50:18.031Z,41.34
2019-03-13T10:52:29.681Z,40.49
2019-03-13T10:54:55.579Z,40.59
2019-03-13T10:57:26.523Z,39.54
2019-03-13T10:59:54.871Z,39.97
2019-03-13T11:02:26.285Z,40.73
2019-03-13T11:04:58.137Z,41.69
2019-03-13T11:07:12.738Z,43.28
2019-03-13T11:09:36.682Z,44.10
2019-03-13T11:12:08.115Z,45.45
2019-03-13T11:14:36.500Z,46.33
2019-03-13T11:17:05.266Z,47.50
2019-03-13T11:19:24.311Z,46.71
2019-03-13T11:21:45.652Z,46.04
2019-03-13T11:24:03.944Z,46.14
2019-03-13T11:26:32.068Z,45.40
2019-03-13T11:29:01.222Z,45.15
2019-03-13T11:31:39.044Z,44.76
2019-03-13T11:34:01.174Z,44.57
2019-03-13T11:36:11.381Z,44.91
2019-03-13T11:38:34.690Z,45.31
2019-03-13T11:40:56.297Z,45.20
2019-03-13T11:43:22.048Z,45.72
2019-03-13T11:45:43.729Z,45.93
2019-03-13T11:48:09.537Z,46.39
2019-03-13T11:50:38.610Z,46.67
2019-03-13T11:52:54.693Z,46.12
2019-03-13T11:55:20.243Z,46.24
2019-03-13T11:57:37.177Z,44.92
2019-03-13T11:59:57.067Z,44.44
2019-03-13T12:02:35.010Z,44.29
2019-03-13T12:04:46.180Z,44.08
2019-03-13T12:07:07.405Z,44.09
2019-03-13T12:09:19.509Z,43.50
2019-03-13T12:11:34.776Z,42.77
2019-03-13T12:13:49.966Z,42.89
2019-03-13T12:16:01.224Z,42.33
2019-03-13T12:18:24.202Z,42.57
2019-03-13T12:20:53.165Z,41.92
2019-03-13T12:23:18.689Z,41.96
2019-03-13T12:26:03.364Z,42.67
2019-03-13T12:31:08.745Z,42.81
2019-03-13T12:33:39.122Z,42.74
2019-03-13T12:35:56.444Z,42.79
2019-03-13T12:38:31.147Z,42.02
2019-03-13T12:40:59.822Z,42.59
2019-03-13T12:43:12.788Z,42.89
2019-03-13T12:45:28.296Z,43.46
2019-03-13T12:47:57.129Z,43.39
2019-03-13T12:50:06.981Z,42.80
2019-03-13T12:52:24.355Z,43.03
2019-03-13T12:54:42.597Z,42.89
2019-03-13T12:57:08.255Z,42.35
2019-03-13T12:59:30.999Z,42.15
2019-03-13T13:02:08.942Z,41.04
2019-03-13T13:04:31.940Z,40.96
2019-03-13T14:01:19.764Z,42.11
2019-03-13T14:03:23.506Z,42.33
2019-03-13T14:05:27.229Z,42.24
2019-03-13T14:07:31.059Z,42.65
2019-03-13T14:09:34.795Z,42.41
2019-03-13T14:11:38.623Z,42.81
2019-03-13T14:13:42.337Z,43.00
2019-03-13T14:15:46.049Z,42.67
2019-03-13T14:17:49.786Z,42.82
2019-03-13T14:19:53.497Z,43.28
2019-03-13T14:21:57.305Z,43.95
2019-03-13T14:24:01.014Z,44.20
2019-03-13T14:26:04.799Z,44.98
2019-03-13T14:28:08.658Z,44.88
2019-03-13T14:30:13.323Z,45.22
2019-03-13T14:32:17.167Z,44.94
2019-03-13T14:34:20.872Z,45.08
2019-03-13T14:36:24.592Z,44.92
2019-03-13T14:38:28.337Z,44.79
2019-03-13T14:40:32.068Z,44.16
2019-03-13T14:42:35.917Z,44.04
2019-03-13T14:44:39.628Z,43.84
2019-03-13T14:46:43.453Z,43.96
2019-03-13T14:48:47.171Z,44.06
2019-03-13T14:50:50.953Z,43.78
2019-03-13T14:52:54.757Z,44.23
2019-03-13T14:54:58.479Z,44.05
2019-03-13T14:57:02.242Z,44.20
2019-03-13T14:59:05.955Z,44.77
2019-03-13T15:01:09.811Z,44.29
2019-03-13T15:03:13.610Z,43.63
2019-03-13T15:05:17.576Z,43.25
2019-03-13T15:07:21.401Z,42.87
2019-03-13T15:09:25.096Z,42.73
2019-03-13T15:11:28.796Z,43.10
2019-03-13T15:13:32.523Z,43.16
2019-03-13T15:15:36.224Z,43.79
2019-03-13T15:17:39.965Z,43.75
2019-03-13T15:19:43.671Z,44.55
2019-03-13T15:21:47.427Z,44.82
2019-03-13T15:23:51.259Z,45.03
2019-03-13T15:25:54.980Z,45.49
2019-03-13T15:27:58.715Z,45.59
2019-03-13T15:30:02.531Z,45.27
2019-03-13T15:32:06.237Z,44.90
2019-03-13T15:34:09.975Z,44.55
2019-03-13T15:36:13.754Z,44.59
2019-03-13T15:38:17.495Z,44.37
2019-03-13T15:40:21.356Z,44.98
2019-03-13T15:42:25.140Z,44.98
2019-03-13T15:44:28.975Z,44.94
2019-03-13T15:46:33.006Z,44.59
2019-03-13T15:48:36.785Z,45.16
2019-03-13T15:50:40.651Z,45.21
2019-03-13T15:52:44.586Z,45.52
2019-03-13T15:54:48.315Z,46.28
2019-03-13T15:56:52.015Z,46.52
2019-03-13T15:58:55.743Z,46.46
2019-03-13T16:00:59.452Z,46.81
2019-03-13T16:03:03.356Z,47.21
2019-03-13T16:05:07.231Z,47.57
2019-03-13T16:07:10.963Z,48.39
2019-03-13T16:09:14.792Z,49.86
2019-03-13T16:11:18.501Z,52.73
2019-03-13T16:13:22.344Z,54.58
2019-03-13T16:15:27.688Z,55.10
2019-03-13T16:17:31.389Z,55.63
2019-03-13T16:19:35.220Z,56.32
2019-03-13T16:21:38.927Z,56.46
2019-03-13T16:23:42.662Z,55.95
2019-03-13T16:25:46.377Z,55.67
2019-03-13T16:27:50.158Z,55.93
2019-03-13T16:29:54.013Z,55.41
2019-03-13T16:31:58.132Z,55.09
2019-03-13T16:34:01.964Z,54.99
2019-03-13T16:36:05.736Z,55.13
2019-03-13T16:38:09.643Z,54.85
2019-03-13T16:40:14.621Z,54.60
2019-03-13T16:42:18.322Z,54.88
2019-03-13T16:44:22.062Z,55.69
2019-03-13T16:46:25.762Z,55.93
2019-03-13T16:48:29.531Z,56.37
2019-03-13T16:50:33.337Z,59.36
2019-03-13T16:52:37.116Z,61.24
2019-03-13T16:54:40.965Z,62.03
2019-03-13T16:56:44.663Z,63.64
2019-03-13T16:58:48.500Z,64.45
2019-03-13T17:00:52.384Z,63.89
2019-03-13T17:02:56.260Z,64.06
2019-03-13T17:04:59.997Z,64.21
2019-03-13T17:07:03.775Z,63.74
2019-03-13T17:09:07.941Z,63.69
2019-03-13T17:11:11.624Z,63.87
2019-03-13T17:13:15.427Z,64.11
2019-03-13T17:15:20.053Z,63.64
2019-03-13T17:17:23.829Z,64.11
2019-03-13T17:19:27.662Z,64.60
2019-03-13T17:21:31.364Z,64.74
2019-03-13T17:23:35.149Z,64.88
2019-03-13T17:25:38.982Z,65.18
2019-03-13T17:27:42.697Z,65.73
2019-03-13T17:29:46.557Z,65.25
2019-03-13T17:31:50.341Z,65.10
2019-03-13T17:33:54.188Z,65.28
2019-03-13T17:35:57.886Z,65.23
2019-03-13T17:38:01.598Z,65.08
2019-03-13T17:40:06.408Z,65.04
2019-03-13T17:42:10.111Z,65.97
2019-03-13T17:44:14.027Z,66.16
2019-03-13T17:46:17.748Z,66.08
2019-03-13T17:48:21.538Z,66.47
2019-03-13T17:50:25.622Z,66.79
2019-03-13T17:52:29.331Z,66.98
2019-03-13T17:54:33.170Z,67.23
2019-03-13T17:56:36.880Z,67.23
2019-03-13T17:58:40.582Z,66.96
2019-03-13T18:00:49.627Z,67.18
2019-03-13T18:02:53.427Z,67.49
2019-03-13T18:04:57.166Z,67.90
2019-03-13T18:07:00.889Z,68.28
2019-03-13T18:09:06.264Z,68.62
2019-03-13T18:11:10.082Z,69.15
2019-03-13T18:13:13.788Z,69.54
2019-03-13T18:15:17.823Z,70.12
2019-03-13T18:17:21.617Z,70.71
2019-03-13T18:19:25.364Z,71.62
2019-03-13T18:21:29.149Z,72.30
2019-03-13T18:23:32.879Z,72.65
2019-03-13T18:25:36.615Z,73.07
2019-03-13T18:27:40.489Z,73.89
2019-03-13T18:29:44.349Z,74.60
2019-03-13T18:31:48.067Z,75.13
2019-03-13T18:33:53.165Z,75.05
2019-03-13T18:35:58.734Z,74.93
2019-03-13T18:41:04.323Z,74.53
2019-03-13T18:43:08.069Z,74.19
2019-03-13T18:45:14.772Z,73.84
2019-03-13T18:47:18.549Z,73.75
2019-03-13T18:49:22.263Z,73.48
2019-03-13T18:51:26.013Z,73.29
2019-03-13T18:53:29.779Z,72.82
2019-03-13T18:55:33.709Z,72.71
2019-03-13T18:57:37.504Z,72.53
2019-03-13T18:59:41.346Z,72.68
2019-03-13T19:01:45.113Z,72.66
2019-03-13T19:03:48.959Z,72.39
2019-03-13T19:05:54.655Z,72.69
2019-03-13T19:07:58.762Z,72.58
2019-03-13T19:10:02.666Z,72.41
2019-03-13T19:12:06.535Z,72.32
2019-03-13T19:14:10.443Z,72.20
2019-03-13T19:16:14.318Z,72.51
2019-03-13T19:18:18.083Z,72.55
2019-03-13T19:20:22.024Z,72.10
2019-03-13T19:22:25.751Z,72.26
2019-03-13T19:24:31.669Z,72.11
2019-03-13T19:26:34.902Z,72.02
2019-03-13T19:28:38.739Z,71.90
2019-03-13T19:30:42.559Z,72.04
2019-03-13T19:32:46.417Z,71.88
2019-03-13T19:34:50.152Z,71.59
2019-03-13T19:36:53.962Z,71.35
2019-03-13T19:38:57.725Z,71.22
2019-03-13T19:41:01.569Z,71.11
2019-03-13T19:43:05.432Z,71.08
2019-03-13T19:45:12.126Z,71.41
2019-03-13T19:47:16.094Z,71.66
2019-03-13T19:49:19.807Z,71.67
2019-03-13T19:51:23.677Z,71.92
2019-03-13T19:53:27.439Z,71.81
2019-03-13T19:55:31.344Z,71.69
2019-03-13T19:57:35.044Z,71.40
2019-03-13T19:59:38.749Z,71.65
2019-03-13T20:01:42.515Z,71.77
2019-03-13T20:09:16.847Z,71.84
2019-03-13T20:11:20.745Z,72.34
2019-03-13T20:13:24.469Z,72.68
2019-03-13T20:15:29.898Z,72.76
2019-03-13T20:17:33.605Z,73.14
2019-03-13T20:19:37.386Z,73.51
2019-03-13T20:21:41.141Z,73.76
2019-03-13T20:23:44.856Z,73.81
2019-03-13T20:25:48.593Z,73.72
2019-03-13T20:27:54.629Z,73.68
2019-03-13T20:29:57.831Z,73.77
2019-03-13T20:32:01.658Z,73.73
2019-03-13T20:34:05.514Z,73.98
2019-03-13T20:36:09.397Z,74.65
2019-03-13T20:38:13.225Z,75.16
2019-03-13T20:40:18.740Z,76.83
2019-03-13T20:42:22.502Z,78.20
2019-03-13T20:44:26.285Z,79.49
2019-03-13T20:46:30.223Z,80.22
2019-03-13T20:48:33.920Z,80.93
2019-03-13T20:50:38.290Z,81.44
2019-03-13T20:52:42.106Z,81.81
2019-03-13T20:54:46.848Z,82.00
2019-03-13T20:56:50.653Z,81.88
2019-03-13T20:58:54.467Z,81.76
2019-03-13T21:00:58.216Z,81.71
2019-03-13T21:03:01.925Z,81.75
2019-03-13T21:05:05.948Z,81.92
2019-03-13T21:07:09.739Z,81.77
2019-03-13T21:09:13.443Z,81.66
2019-03-13T21:11:17.225Z,81.63
2019-03-13T21:13:21.055Z,81.60
2019-03-13T21:15:24.955Z,81.22
2019-03-13T21:17:28.780Z,81.05
2019-03-13T21:19:32.513Z,81.13
2019-03-13T21:21:36.276Z,81.13
2019-03-13T21:23:39.974Z,81.11
2019-03-13T21:25:43.676Z,81.12
2019-03-13T21:27:48.343Z,80.99
2019-03-13T21:29:52.058Z,80.94
2019-03-13T21:31:55.794Z,80.97
2019-03-13T21:33:59.512Z,80.94
2019-03-13T21:36:03.378Z,80.94
2019-03-13T21:38:07.343Z,80.66
2019-03-13T21:40:11.754Z,80.52
2019-03-13T21:42:15.653Z,80.36
2019-03-13T21:44:19.384Z,80.17
2019-03-13T21:46:23.202Z,79.96
2019-03-13T21:48:26.993Z,79.74
2019-03-13T21:50:30.687Z,79.51
2019-03-13T21:52:34.494Z,79.41
2019-03-13T21:54:38.201Z,79.42
2019-03-13T21:56:41.942Z,79.42
2019-03-13T21:58:45.737Z,79.39
2019-03-13T22:00:49.642Z,79.28
2019-03-13T22:02:53.449Z,79.20
2019-03-13T22:04:57.121Z,79.05
2019-03-13T22:07:00.952Z,79.04
2019-03-13T22:09:06.159Z,79.21
2019-03-13T22:11:09.905Z,79.35
2019-03-13T22:13:13.678Z,79.70
2019-03-13T22:15:17.560Z,79.79
2019-03-13T22:17:21.401Z,79.85
2019-03-13T22:19:25.110Z,80.03
2019-03-13T22:21:28.885Z,79.96
2019-03-13T22:23:32.589Z,79.99
2019-03-13T22:25:36.284Z,79.97
2019-03-13T22:27:40.091Z,80.06
2019-03-13T22:29:43.835Z,80.24
2019-03-13T22:31:47.570Z,80.49
2019-03-13T22:33:51.375Z,80.49
2019-03-13T22:35:55.080Z,80.58
2019-03-13T22:37:58.906Z,80.62
2019-03-13T22:40:02.615Z,80.72
2019-03-13T22:42:06.591Z,80.83
2019-03-13T22:44:10.302Z,80.81
2019-03-13T22:46:13.992Z,80.69
2019-03-13T22:48:17.846Z,80.45
2019-03-13T22:50:21.561Z,80.38
2019-03-13T22:52:25.479Z,80.39
2019-03-13T22:54:29.257Z,80.33
2019-03-13T22:56:32.967Z,80.46
2019-03-13T22:58:36.713Z,80.61
2019-03-13T23:01:01.068Z,80.53
2019-03-13T23:03:05.138Z,80.49
2019-03-13T23:05:08.994Z,80.37
2019-03-13T23:07:12.831Z,80.42
2019-03-13T23:09:16.625Z,80.39
2019-03-13T23:11:20.332Z,80.29
2019-03-13T23:13:24.278Z,80.16
2019-03-13T23:15:28.055Z,80.07
2019-03-13T23:17:31.886Z,79.94
2019-03-13T23:19:35.618Z,79.85
2019-03-13T23:21:39.321Z,79.78
2019-03-13T23:23:43.224Z,79.62
2019-03-13T23:25:46.998Z,79.62
2019-03-13T23:27:50.916Z,79.29
2019-03-13T23:29:54.629Z,79.21
2019-03-13T23:31:58.371Z,79.05
2019-03-13T23:34:02.084Z,78.93
2019-03-13T23:36:06.074Z,78.90
2019-03-13T23:38:10.261Z,78.97
2019-03-13T23:40:14.033Z,79.04
2019-03-13T23:42:17.734Z,78.91
2019-03-13T23:44:21.519Z,78.84
2019-03-13T23:46:25.288Z,78.81
2019-03-13T23:48:29.110Z,78.98
2019-03-13T23:50:32.912Z,79.08
2019-03-13T23:52:36.628Z,79.23
2019-03-13T23:54:40.346Z,79.32
2019-03-13T23:56:44.081Z,79.28
2019-03-13T23:58:47.780Z,79.43
